sensor_id;sensor_type;location;lat;lon;timestamp;P1;durP1;ratioP1;P2;durP2;ratioP2
36445;SDS011;22472;50.848;-1.216;2023-05-29T00:00:55;9.35;;;3.58;;
36445;SDS011;22472;50.848;-1.216;2023-05-29T00:03:24;7.47;;;3.10;;
36445;SDS011;22472;50.848;-1.216;2023-05-29T00:05:51;8.43;;;3.13;;
36445;SDS011;22472;50.848;-1.216;2023-05-29T00:08:19;12.07;;;3.50;;
36445;SDS011;22472;50.848;-1.216;2023-05-29T00:10:46;7.90;;;3.30;;
36445;SDS011;22472;50.848;-1.216;2023-05-29T00:13:14;9.77;;;3.50;;
36445;SDS011;22472;50.848;-1.216;2023-05-29T00:15:41;12.55;;;3.72;;
36445;SDS011;22472;50.848;-1.216;2023-05-29T00:18:09;12.52;;;3.60;;
36445;SDS011;22472;50.848;-1.216;2023-05-29T00:20:38;8.40;;;3.17;;
36445;SDS011;22472;50.848;-1.216;2023-05-29T00:23:05;10.00;;;3.15;;
36445;SDS011;22472;50.848;-1.216;2023-05-29T00:25:35;10.55;;;3.47;;
36445;SDS011;22472;50.848;-1.216;2023-05-29T00:28:02;13.45;;;3.30;;
36445;SDS011;22472;50.848;-1.216;2023-05-29T00:30:31;11.60;;;3.17;;
36445;SDS011;22472;50.848;-1.216;2023-05-29T00:32:58;9.23;;;3.13;;
36445;SDS011;22472;50.848;-1.216;2023-05-29T00:35:26;12.77;;;3.45;;
36445;SDS011;22472;50.848;-1.216;2023-05-29T00:37:54;14.50;;;3.05;;
36445;SDS011;22472;50.848;-1.216;2023-05-29T00:40:22;12.10;;;2.83;;
36445;SDS011;22472;50.848;-1.216;2023-05-29T00:42:49;10.73;;;3.20;;
36445;SDS011;22472;50.848;-1.216;2023-05-29T00:45:17;12.80;;;3.55;;
36445;SDS011;22472;50.848;-1.216;2023-05-29T00:47:44;8.73;;;2.90;;
36445;SDS011;22472;50.848;-1.216;2023-05-29T00:50:12;9.98;;;2.50;;
36445;SDS011;22472;50.848;-1.216;2023-05-29T00:52:41;11.00;;;2.90;;
36445;SDS011;22472;50.848;-1.216;2023-05-29T00:55:10;7.78;;;2.03;;
36445;SDS011;22472;50.848;-1.216;2023-05-29T00:57:39;11.20;;;2.40;;
36445;SDS011;22472;50.848;-1.216;2023-05-29T01:00:06;12.18;;;2.65;;
36445;SDS011;22472;50.848;-1.216;2023-05-29T01:02:37;9.93;;;2.05;;
36445;SDS011;22472;50.848;-1.216;2023-05-29T01:05:09;8.95;;;2.30;;
36445;SDS011;22472;50.848;-1.216;2023-05-29T01:07:36;10.57;;;1.95;;
36445;SDS011;22472;50.848;-1.216;2023-05-29T01:10:04;9.90;;;2.42;;
36445;SDS011;22472;50.848;-1.216;2023-05-29T01:12:36;8.85;;;2.25;;
36445;SDS011;22472;50.848;-1.216;2023-05-29T01:15:15;10.90;;;2.33;;
36445;SDS011;22472;50.848;-1.216;2023-05-29T01:17:47;10.60;;;2.25;;
36445;SDS011;22472;50.848;-1.216;2023-05-29T01:20:22;10.07;;;2.58;;
36445;SDS011;22472;50.848;-1.216;2023-05-29T01:22:58;10.10;;;2.50;;
36445;SDS011;22472;50.848;-1.216;2023-05-29T01:25:33;8.07;;;2.47;;
36445;SDS011;22472;50.848;-1.216;2023-05-29T01:28:04;11.93;;;2.40;;
36445;SDS011;22472;50.848;-1.216;2023-05-29T01:30:31;11.93;;;2.60;;
36445;SDS011;22472;50.848;-1.216;2023-05-29T01:32:59;12.07;;;2.40;;
36445;SDS011;22472;50.848;-1.216;2023-05-29T01:35:27;7.95;;;2.35;;
36445;SDS011;22472;50.848;-1.216;2023-05-29T01:37:54;13.35;;;2.25;;
36445;SDS011;22472;50.848;-1.216;2023-05-29T01:40:22;10.75;;;2.33;;
36445;SDS011;22472;50.848;-1.216;2023-05-29T01:42:49;11.82;;;2.42;;
36445;SDS011;22472;50.848;-1.216;2023-05-29T01:45:18;8.88;;;2.15;;
36445;SDS011;22472;50.848;-1.216;2023-05-29T01:47:46;9.65;;;2.10;;
36445;SDS011;22472;50.848;-1.216;2023-05-29T01:50:14;13.02;;;2.60;;
36445;SDS011;22472;50.848;-1.216;2023-05-29T01:52:42;9.60;;;2.15;;
36445;SDS011;22472;50.848;-1.216;2023-05-29T01:55:09;10.38;;;2.20;;
36445;SDS011;22472;50.848;-1.216;2023-05-29T01:57:37;10.02;;;2.13;;
36445;SDS011;22472;50.848;-1.216;2023-05-29T02:00:05;12.55;;;2.10;;
36445;SDS011;22472;50.848;-1.216;2023-05-29T02:02:37;12.82;;;2.08;;
36445;SDS011;22472;50.848;-1.216;2023-05-29T02:05:06;10.30;;;2.20;;
36445;SDS011;22472;50.848;-1.216;2023-05-29T02:07:54;13.13;;;1.85;;
36445;SDS011;22472;50.848;-1.216;2023-05-29T02:10:22;10.00;;;2.03;;
36445;SDS011;22472;50.848;-1.216;2023-05-29T02:12:50;12.68;;;2.13;;
36445;SDS011;22472;50.848;-1.216;2023-05-29T02:15:17;9.57;;;2.08;;
36445;SDS011;22472;50.848;-1.216;2023-05-29T02:17:46;11.10;;;1.90;;
36445;SDS011;22472;50.848;-1.216;2023-05-29T02:20:14;10.48;;;1.98;;
36445;SDS011;22472;50.848;-1.216;2023-05-29T02:22:43;10.45;;;1.85;;
36445;SDS011;22472;50.848;-1.216;2023-05-29T02:25:11;11.35;;;2.10;;
36445;SDS011;22472;50.848;-1.216;2023-05-29T02:27:38;9.77;;;2.13;;
36445;SDS011;22472;50.848;-1.216;2023-05-29T02:30:06;8.18;;;1.90;;
36445;SDS011;22472;50.848;-1.216;2023-05-29T02:32:33;10.35;;;2.00;;
36445;SDS011;22472;50.848;-1.216;2023-05-29T02:35:03;6.10;;;1.75;;
36445;SDS011;22472;50.848;-1.216;2023-05-29T02:37:30;9.85;;;2.25;;
36445;SDS011;22472;50.848;-1.216;2023-05-29T02:39:58;10.85;;;2.15;;
36445;SDS011;22472;50.848;-1.216;2023-05-29T02:42:25;11.82;;;2.15;;
36445;SDS011;22472;50.848;-1.216;2023-05-29T02:44:53;11.93;;;2.03;;
36445;SDS011;22472;50.848;-1.216;2023-05-29T02:47:20;12.38;;;2.05;;
36445;SDS011;22472;50.848;-1.216;2023-05-29T02:49:48;11.35;;;2.10;;
36445;SDS011;22472;50.848;-1.216;2023-05-29T02:52:17;7.93;;;2.20;;
36445;SDS011;22472;50.848;-1.216;2023-05-29T02:54:44;8.95;;;1.85;;
36445;SDS011;22472;50.848;-1.216;2023-05-29T02:57:11;8.98;;;1.75;;
36445;SDS011;22472;50.848;-1.216;2023-05-29T02:59:39;11.68;;;1.85;;
36445;SDS011;22472;50.848;-1.216;2023-05-29T03:02:06;9.60;;;2.05;;
36445;SDS011;22472;50.848;-1.216;2023-05-29T03:04:33;11.70;;;1.80;;
36445;SDS011;22472;50.848;-1.216;2023-05-29T03:07:01;11.48;;;2.20;;
36445;SDS011;22472;50.848;-1.216;2023-05-29T03:09:30;10.55;;;1.88;;
36445;SDS011;22472;50.848;-1.216;2023-05-29T03:11:57;11.52;;;1.98;;
36445;SDS011;22472;50.848;-1.216;2023-05-29T03:14:26;8.70;;;1.83;;
36445;SDS011;22472;50.848;-1.216;2023-05-29T03:16:53;10.27;;;1.95;;
36445;SDS011;22472;50.848;-1.216;2023-05-29T03:19:21;9.70;;;2.03;;
36445;SDS011;22472;50.848;-1.216;2023-05-29T03:21:49;7.97;;;1.90;;
36445;SDS011;22472;50.848;-1.216;2023-05-29T03:24:16;10.15;;;1.80;;
36445;SDS011;22472;50.848;-1.216;2023-05-29T03:26:45;10.45;;;1.88;;
36445;SDS011;22472;50.848;-1.216;2023-05-29T03:29:12;10.07;;;1.90;;
36445;SDS011;22472;50.848;-1.216;2023-05-29T03:31:40;9.50;;;1.92;;
36445;SDS011;22472;50.848;-1.216;2023-05-29T03:34:07;9.35;;;1.92;;
36445;SDS011;22472;50.848;-1.216;2023-05-29T03:36:34;12.23;;;2.25;;
36445;SDS011;22472;50.848;-1.216;2023-05-29T03:39:02;9.85;;;2.10;;
36445;SDS011;22472;50.848;-1.216;2023-05-29T03:41:30;8.52;;;1.63;;
36445;SDS011;22472;50.848;-1.216;2023-05-29T03:43:58;9.02;;;2.20;;
36445;SDS011;22472;50.848;-1.216;2023-05-29T03:46:26;12.43;;;2.03;;
36445;SDS011;22472;50.848;-1.216;2023-05-29T03:48:54;8.20;;;1.63;;
36445;SDS011;22472;50.848;-1.216;2023-05-29T03:51:21;11.95;;;2.15;;
36445;SDS011;22472;50.848;-1.216;2023-05-29T03:53:49;7.28;;;1.70;;
36445;SDS011;22472;50.848;-1.216;2023-05-29T03:56:16;9.32;;;2.00;;
36445;SDS011;22472;50.848;-1.216;2023-05-29T03:58:43;11.80;;;1.80;;
36445;SDS011;22472;50.848;-1.216;2023-05-29T04:01:12;6.63;;;1.63;;
36445;SDS011;22472;50.848;-1.216;2023-05-29T04:03:40;10.57;;;1.95;;
36445;SDS011;22472;50.848;-1.216;2023-05-29T04:06:09;12.13;;;2.08;;
36445;SDS011;22472;50.848;-1.216;2023-05-29T04:08:36;11.90;;;2.00;;
36445;SDS011;22472;50.848;-1.216;2023-05-29T04:11:04;7.50;;;2.00;;
36445;SDS011;22472;50.848;-1.216;2023-05-29T04:13:31;9.70;;;1.90;;
36445;SDS011;22472;50.848;-1.216;2023-05-29T04:15:59;11.30;;;1.92;;
36445;SDS011;22472;50.848;-1.216;2023-05-29T04:18:28;9.50;;;1.90;;
36445;SDS011;22472;50.848;-1.216;2023-05-29T04:20:55;10.77;;;1.77;;
36445;SDS011;22472;50.848;-1.216;2023-05-29T04:23:23;8.13;;;1.90;;
36445;SDS011;22472;50.848;-1.216;2023-05-29T04:25:50;9.40;;;1.88;;
36445;SDS011;22472;50.848;-1.216;2023-05-29T04:28:18;11.30;;;2.13;;
36445;SDS011;22472;50.848;-1.216;2023-05-29T04:30:46;9.07;;;2.15;;
36445;SDS011;22472;50.848;-1.216;2023-05-29T04:33:14;9.95;;;2.05;;
36445;SDS011;22472;50.848;-1.216;2023-05-29T04:35:43;6.90;;;1.65;;
36445;SDS011;22472;50.848;-1.216;2023-05-29T04:38:10;10.77;;;1.90;;
36445;SDS011;22472;50.848;-1.216;2023-05-29T04:40:38;10.32;;;2.22;;
36445;SDS011;22472;50.848;-1.216;2023-05-29T04:43:05;10.18;;;2.10;;
36445;SDS011;22472;50.848;-1.216;2023-05-29T04:45:33;12.07;;;2.15;;
36445;SDS011;22472;50.848;-1.216;2023-05-29T04:48:02;11.07;;;2.28;;
36445;SDS011;22472;50.848;-1.216;2023-05-29T04:50:29;12.88;;;2.20;;
36445;SDS011;22472;50.848;-1.216;2023-05-29T04:52:58;9.30;;;1.90;;
36445;SDS011;22472;50.848;-1.216;2023-05-29T04:55:28;12.18;;;2.47;;
36445;SDS011;22472;50.848;-1.216;2023-05-29T04:57:56;10.93;;;2.40;;
36445;SDS011;22472;50.848;-1.216;2023-05-29T05:00:23;14.27;;;2.35;;
36445;SDS011;22472;50.848;-1.216;2023-05-29T05:02:52;14.85;;;2.28;;
36445;SDS011;22472;50.848;-1.216;2023-05-29T05:05:19;12.82;;;2.08;;
36445;SDS011;22472;50.848;-1.216;2023-05-29T05:07:47;12.27;;;2.15;;
36445;SDS011;22472;50.848;-1.216;2023-05-29T05:10:15;9.30;;;1.83;;
36445;SDS011;22472;50.848;-1.216;2023-05-29T05:12:43;15.65;;;2.47;;
36445;SDS011;22472;50.848;-1.216;2023-05-29T05:15:10;13.65;;;2.45;;
36445;SDS011;22472;50.848;-1.216;2023-05-29T05:17:38;10.18;;;2.00;;
36445;SDS011;22472;50.848;-1.216;2023-05-29T05:20:06;15.43;;;2.22;;
36445;SDS011;22472;50.848;-1.216;2023-05-29T05:22:34;14.10;;;2.22;;
36445;SDS011;22472;50.848;-1.216;2023-05-29T05:25:01;13.88;;;2.67;;
36445;SDS011;22472;50.848;-1.216;2023-05-29T05:27:30;14.07;;;2.65;;
36445;SDS011;22472;50.848;-1.216;2023-05-29T05:29:58;13.90;;;2.38;;
36445;SDS011;22472;50.848;-1.216;2023-05-29T05:32:25;11.27;;;2.00;;
36445;SDS011;22472;50.848;-1.216;2023-05-29T05:34:53;8.30;;;2.05;;
36445;SDS011;22472;50.848;-1.216;2023-05-29T05:37:20;9.00;;;2.15;;
36445;SDS011;22472;50.848;-1.216;2023-05-29T05:39:48;15.88;;;2.70;;
36445;SDS011;22472;50.848;-1.216;2023-05-29T05:42:16;13.70;;;2.25;;
36445;SDS011;22472;50.848;-1.216;2023-05-29T05:44:44;14.45;;;2.28;;
36445;SDS011;22472;50.848;-1.216;2023-05-29T05:47:12;21.02;;;3.08;;
36445;SDS011;22472;50.848;-1.216;2023-05-29T05:49:39;13.55;;;2.15;;
36445;SDS011;22472;50.848;-1.216;2023-05-29T05:52:08;12.00;;;2.22;;
36445;SDS011;22472;50.848;-1.216;2023-05-29T05:54:36;15.68;;;2.30;;
36445;SDS011;22472;50.848;-1.216;2023-05-29T05:57:03;14.40;;;2.40;;
36445;SDS011;22472;50.848;-1.216;2023-05-29T05:59:32;10.30;;;2.22;;
36445;SDS011;22472;50.848;-1.216;2023-05-29T06:02:01;11.63;;;2.15;;
36445;SDS011;22472;50.848;-1.216;2023-05-29T06:04:29;13.05;;;2.53;;
36445;SDS011;22472;50.848;-1.216;2023-05-29T06:06:57;13.07;;;2.05;;
36445;SDS011;22472;50.848;-1.216;2023-05-29T06:09:24;9.75;;;1.52;;
36445;SDS011;22472;50.848;-1.216;2023-05-29T06:11:53;11.38;;;1.90;;
36445;SDS011;22472;50.848;-1.216;2023-05-29T06:14:20;12.02;;;1.92;;
36445;SDS011;22472;50.848;-1.216;2023-05-29T06:16:47;15.82;;;2.00;;
36445;SDS011;22472;50.848;-1.216;2023-05-29T06:19:17;15.05;;;2.53;;
36445;SDS011;22472;50.848;-1.216;2023-05-29T06:21:44;11.23;;;2.15;;
36445;SDS011;22472;50.848;-1.216;2023-05-29T06:24:12;14.63;;;2.45;;
36445;SDS011;22472;50.848;-1.216;2023-05-29T06:26:39;10.18;;;1.77;;
36445;SDS011;22472;50.848;-1.216;2023-05-29T06:29:07;12.98;;;2.42;;
36445;SDS011;22472;50.848;-1.216;2023-05-29T06:31:34;11.68;;;2.25;;
36445;SDS011;22472;50.848;-1.216;2023-05-29T06:34:02;9.25;;;1.80;;
36445;SDS011;22472;50.848;-1.216;2023-05-29T06:36:30;9.50;;;2.05;;
36445;SDS011;22472;50.848;-1.216;2023-05-29T06:38:58;11.43;;;2.00;;
36445;SDS011;22472;50.848;-1.216;2023-05-29T06:41:25;13.18;;;2.08;;
36445;SDS011;22472;50.848;-1.216;2023-05-29T06:43:53;13.27;;;2.25;;
36445;SDS011;22472;50.848;-1.216;2023-05-29T06:46:20;10.48;;;2.10;;
36445;SDS011;22472;50.848;-1.216;2023-05-29T06:48:47;10.00;;;2.13;;
36445;SDS011;22472;50.848;-1.216;2023-05-29T06:51:15;8.55;;;1.95;;
36445;SDS011;22472;50.848;-1.216;2023-05-29T06:53:44;14.10;;;2.30;;
36445;SDS011;22472;50.848;-1.216;2023-05-29T06:56:11;12.73;;;1.90;;
36445;SDS011;22472;50.848;-1.216;2023-05-29T06:58:39;9.88;;;1.70;;
36445;SDS011;22472;50.848;-1.216;2023-05-29T07:01:06;10.25;;;1.90;;
36445;SDS011;22472;50.848;-1.216;2023-05-29T07:03:34;8.98;;;1.80;;
36445;SDS011;22472;50.848;-1.216;2023-05-29T07:06:02;11.40;;;1.77;;
36445;SDS011;22472;50.848;-1.216;2023-05-29T07:08:29;10.43;;;1.88;;
36445;SDS011;22472;50.848;-1.216;2023-05-29T07:10:58;13.23;;;2.17;;
36445;SDS011;22472;50.848;-1.216;2023-05-29T07:13:25;10.07;;;2.10;;
36445;SDS011;22472;50.848;-1.216;2023-05-29T07:15:53;13.20;;;2.40;;
36445;SDS011;22472;50.848;-1.216;2023-05-29T07:18:20;9.68;;;1.85;;
36445;SDS011;22472;50.848;-1.216;2023-05-29T07:20:48;12.25;;;2.13;;
36445;SDS011;22472;50.848;-1.216;2023-05-29T07:23:15;11.05;;;1.92;;
36445;SDS011;22472;50.848;-1.216;2023-05-29T07:25:43;9.25;;;1.90;;
36445;SDS011;22472;50.848;-1.216;2023-05-29T07:28:11;9.60;;;1.95;;
36445;SDS011;22472;50.848;-1.216;2023-05-29T07:30:39;9.45;;;1.67;;
36445;SDS011;22472;50.848;-1.216;2023-05-29T07:33:06;8.40;;;1.77;;
36445;SDS011;22472;50.848;-1.216;2023-05-29T07:35:34;9.77;;;1.73;;
36445;SDS011;22472;50.848;-1.216;2023-05-29T07:38:01;9.70;;;1.63;;
36445;SDS011;22472;50.848;-1.216;2023-05-29T07:40:28;5.45;;;1.48;;
36445;SDS011;22472;50.848;-1.216;2023-05-29T07:42:56;9.48;;;1.75;;
36445;SDS011;22472;50.848;-1.216;2023-05-29T07:45:24;6.78;;;1.40;;
36445;SDS011;22472;50.848;-1.216;2023-05-29T07:47:52;8.95;;;1.67;;
36445;SDS011;22472;50.848;-1.216;2023-05-29T07:50:19;8.70;;;1.80;;
36445;SDS011;22472;50.848;-1.216;2023-05-29T07:52:47;13.73;;;1.55;;
36445;SDS011;22472;50.848;-1.216;2023-05-29T07:55:14;8.00;;;1.67;;
36445;SDS011;22472;50.848;-1.216;2023-05-29T07:57:42;9.68;;;1.73;;
36445;SDS011;22472;50.848;-1.216;2023-05-29T08:00:10;8.52;;;1.65;;
36445;SDS011;22472;50.848;-1.216;2023-05-29T08:02:38;14.50;;;1.52;;
36445;SDS011;22472;50.848;-1.216;2023-05-29T08:05:07;8.45;;;1.40;;
36445;SDS011;22472;50.848;-1.216;2023-05-29T08:07:35;7.47;;;1.40;;
36445;SDS011;22472;50.848;-1.216;2023-05-29T08:10:02;8.40;;;1.65;;
36445;SDS011;22472;50.848;-1.216;2023-05-29T08:12:30;7.30;;;1.55;;
36445;SDS011;22472;50.848;-1.216;2023-05-29T08:14:59;9.52;;;1.50;;
36445;SDS011;22472;50.848;-1.216;2023-05-29T08:17:27;10.15;;;1.40;;
36445;SDS011;22472;50.848;-1.216;2023-05-29T08:19:56;10.43;;;1.50;;
36445;SDS011;22472;50.848;-1.216;2023-05-29T08:22:27;8.45;;;1.58;;
36445;SDS011;22472;50.848;-1.216;2023-05-29T08:24:55;7.50;;;1.35;;
36445;SDS011;22472;50.848;-1.216;2023-05-29T08:27:22;9.57;;;1.45;;
36445;SDS011;22472;50.848;-1.216;2023-05-29T08:29:50;8.57;;;1.17;;
36445;SDS011;22472;50.848;-1.216;2023-05-29T08:32:17;9.57;;;1.48;;
36445;SDS011;22472;50.848;-1.216;2023-05-29T08:34:44;6.75;;;1.30;;
36445;SDS011;22472;50.848;-1.216;2023-05-29T08:37:13;10.68;;;1.50;;
36445;SDS011;22472;50.848;-1.216;2023-05-29T08:39:41;5.38;;;1.30;;
36445;SDS011;22472;50.848;-1.216;2023-05-29T08:42:10;10.85;;;1.42;;
36445;SDS011;22472;50.848;-1.216;2023-05-29T08:44:40;7.97;;;1.40;;
36445;SDS011;22472;50.848;-1.216;2023-05-29T08:47:07;7.72;;;1.30;;
36445;SDS011;22472;50.848;-1.216;2023-05-29T08:49:40;7.05;;;1.33;;
36445;SDS011;22472;50.848;-1.216;2023-05-29T08:52:09;7.75;;;1.35;;
36445;SDS011;22472;50.848;-1.216;2023-05-29T08:54:40;7.68;;;1.50;;
36445;SDS011;22472;50.848;-1.216;2023-05-29T08:57:07;8.50;;;1.27;;
36445;SDS011;22472;50.848;-1.216;2023-05-29T08:59:35;8.18;;;1.90;;
36445;SDS011;22472;50.848;-1.216;2023-05-29T09:02:03;8.27;;;1.50;;
36445;SDS011;22472;50.848;-1.216;2023-05-29T09:04:32;7.00;;;1.17;;
36445;SDS011;22472;50.848;-1.216;2023-05-29T09:06:59;7.57;;;0.98;;
36445;SDS011;22472;50.848;-1.216;2023-05-29T09:09:28;9.10;;;1.55;;
36445;SDS011;22472;50.848;-1.216;2023-05-29T09:11:58;8.85;;;1.50;;
36445;SDS011;22472;50.848;-1.216;2023-05-29T09:14:32;7.65;;;1.55;;
36445;SDS011;22472;50.848;-1.216;2023-05-29T09:17:00;4.63;;;1.10;;
36445;SDS011;22472;50.848;-1.216;2023-05-29T09:19:28;8.35;;;2.03;;
36445;SDS011;22472;50.848;-1.216;2023-05-29T09:22:03;6.68;;;1.00;;
36445;SDS011;22472;50.848;-1.216;2023-05-29T09:24:31;8.40;;;1.67;;
36445;SDS011;22472;50.848;-1.216;2023-05-29T09:27:00;7.63;;;1.05;;
36445;SDS011;22472;50.848;-1.216;2023-05-29T09:29:30;11.27;;;1.55;;
36445;SDS011;22472;50.848;-1.216;2023-05-29T09:31:58;7.18;;;1.33;;
36445;SDS011;22472;50.848;-1.216;2023-05-29T09:34:28;8.07;;;1.27;;
36445;SDS011;22472;50.848;-1.216;2023-05-29T09:37:00;7.00;;;1.02;;
36445;SDS011;22472;50.848;-1.216;2023-05-29T09:39:33;6.68;;;1.20;;
36445;SDS011;22472;50.848;-1.216;2023-05-29T09:42:02;6.82;;;1.27;;
36445;SDS011;22472;50.848;-1.216;2023-05-29T09:44:31;5.60;;;1.73;;
36445;SDS011;22472;50.848;-1.216;2023-05-29T09:46:59;4.90;;;0.85;;
36445;SDS011;22472;50.848;-1.216;2023-05-29T09:49:26;5.63;;;1.20;;
36445;SDS011;22472;50.848;-1.216;2023-05-29T09:51:54;7.22;;;1.45;;
36445;SDS011;22472;50.848;-1.216;2023-05-29T09:54:21;7.97;;;1.65;;
36445;SDS011;22472;50.848;-1.216;2023-05-29T09:56:49;7.65;;;1.40;;
36445;SDS011;22472;50.848;-1.216;2023-05-29T09:59:18;8.10;;;1.10;;
36445;SDS011;22472;50.848;-1.216;2023-05-29T10:01:46;7.22;;;1.05;;
36445;SDS011;22472;50.848;-1.216;2023-05-29T10:04:14;7.32;;;1.25;;
36445;SDS011;22472;50.848;-1.216;2023-05-29T10:06:44;7.13;;;1.60;;
36445;SDS011;22472;50.848;-1.216;2023-05-29T10:09:14;6.20;;;1.20;;
36445;SDS011;22472;50.848;-1.216;2023-05-29T10:11:43;7.72;;;1.30;;
36445;SDS011;22472;50.848;-1.216;2023-05-29T10:14:14;6.28;;;1.08;;
36445;SDS011;22472;50.848;-1.216;2023-05-29T10:16:45;6.63;;;1.30;;
36445;SDS011;22472;50.848;-1.216;2023-05-29T10:19:16;9.35;;;1.50;;
36445;SDS011;22472;50.848;-1.216;2023-05-29T10:21:45;7.05;;;1.20;;
36445;SDS011;22472;50.848;-1.216;2023-05-29T10:24:13;7.95;;;1.30;;
36445;SDS011;22472;50.848;-1.216;2023-05-29T10:26:40;5.55;;;1.30;;
36445;SDS011;22472;50.848;-1.216;2023-05-29T10:29:13;8.05;;;1.20;;
36445;SDS011;22472;50.848;-1.216;2023-05-29T10:31:43;6.70;;;1.20;;
36445;SDS011;22472;50.848;-1.216;2023-05-29T10:34:20;6.07;;;1.23;;
36445;SDS011;22472;50.848;-1.216;2023-05-29T10:36:52;9.95;;;1.40;;
36445;SDS011;22472;50.848;-1.216;2023-05-29T10:39:23;8.55;;;1.38;;
36445;SDS011;22472;50.848;-1.216;2023-05-29T10:41:50;6.70;;;1.17;;
36445;SDS011;22472;50.848;-1.216;2023-05-29T10:44:38;5.20;;;1.30;;
36445;SDS011;22472;50.848;-1.216;2023-05-29T10:47:06;8.63;;;1.35;;
36445;SDS011;22472;50.848;-1.216;2023-05-29T10:49:37;5.88;;;1.38;;
36445;SDS011;22472;50.848;-1.216;2023-05-29T10:52:05;5.93;;;1.20;;
36445;SDS011;22472;50.848;-1.216;2023-05-29T10:54:49;5.63;;;1.27;;
36445;SDS011;22472;50.848;-1.216;2023-05-29T10:57:18;7.00;;;1.40;;
36445;SDS011;22472;50.848;-1.216;2023-05-29T10:59:47;6.07;;;1.20;;
36445;SDS011;22472;50.848;-1.216;2023-05-29T11:02:18;4.85;;;1.30;;
36445;SDS011;22472;50.848;-1.216;2023-05-29T11:05:00;6.82;;;1.38;;
36445;SDS011;22472;50.848;-1.216;2023-05-29T11:07:34;4.95;;;1.60;;
36445;SDS011;22472;50.848;-1.216;2023-05-29T11:10:11;5.53;;;1.27;;
36445;SDS011;22472;50.848;-1.216;2023-05-29T11:12:55;7.72;;;1.55;;
36445;SDS011;22472;50.848;-1.216;2023-05-29T11:15:23;5.03;;;1.20;;
36445;SDS011;22472;50.848;-1.216;2023-05-29T11:17:51;6.65;;;1.30;;
36445;SDS011;22472;50.848;-1.216;2023-05-29T11:20:35;5.07;;;1.00;;
36445;SDS011;22472;50.848;-1.216;2023-05-29T11:23:04;7.50;;;1.48;;
36445;SDS011;22472;50.848;-1.216;2023-05-29T11:25:34;6.95;;;1.40;;
36445;SDS011;22472;50.848;-1.216;2023-05-29T11:28:02;4.68;;;0.90;;
36445;SDS011;22472;50.848;-1.216;2023-05-29T11:30:40;5.68;;;1.30;;
36445;SDS011;22472;50.848;-1.216;2023-05-29T11:33:08;4.20;;;1.00;;
36445;SDS011;22472;50.848;-1.216;2023-05-29T11:35:37;5.70;;;1.13;;
36445;SDS011;22472;50.848;-1.216;2023-05-29T11:38:05;6.75;;;1.50;;
36445;SDS011;22472;50.848;-1.216;2023-05-29T11:40:35;5.90;;;0.90;;
36445;SDS011;22472;50.848;-1.216;2023-05-29T11:43:03;6.82;;;1.17;;
36445;SDS011;22472;50.848;-1.216;2023-05-29T11:45:32;5.75;;;1.10;;
36445;SDS011;22472;50.848;-1.216;2023-05-29T11:48:01;6.25;;;1.15;;
36445;SDS011;22472;50.848;-1.216;2023-05-29T11:50:29;6.63;;;1.60;;
36445;SDS011;22472;50.848;-1.216;2023-05-29T11:52:58;4.95;;;1.08;;
36445;SDS011;22472;50.848;-1.216;2023-05-29T11:55:26;6.03;;;1.17;;
36445;SDS011;22472;50.848;-1.216;2023-05-29T11:57:56;7.32;;;1.30;;
36445;SDS011;22472;50.848;-1.216;2023-05-29T12:00:24;8.02;;;1.40;;
36445;SDS011;22472;50.848;-1.216;2023-05-29T12:02:51;6.18;;;1.40;;
36445;SDS011;22472;50.848;-1.216;2023-05-29T12:05:19;7.35;;;1.42;;
36445;SDS011;22472;50.848;-1.216;2023-05-29T12:07:47;5.95;;;1.38;;
36445;SDS011;22472;50.848;-1.216;2023-05-29T12:10:17;7.85;;;1.30;;
36445;SDS011;22472;50.848;-1.216;2023-05-29T12:12:49;8.35;;;1.48;;
36445;SDS011;22472;50.848;-1.216;2023-05-29T12:15:17;4.85;;;1.15;;
36445;SDS011;22472;50.848;-1.216;2023-05-29T12:17:44;5.30;;;1.23;;
36445;SDS011;22472;50.848;-1.216;2023-05-29T12:20:12;7.55;;;1.55;;
36445;SDS011;22472;50.848;-1.216;2023-05-29T12:22:40;5.60;;;1.20;;
36445;SDS011;22472;50.848;-1.216;2023-05-29T12:25:08;6.45;;;1.38;;
36445;SDS011;22472;50.848;-1.216;2023-05-29T12:27:38;6.53;;;1.77;;
36445;SDS011;22472;50.848;-1.216;2023-05-29T12:30:09;6.95;;;1.27;;
36445;SDS011;22472;50.848;-1.216;2023-05-29T12:32:40;6.70;;;1.02;;
36445;SDS011;22472;50.848;-1.216;2023-05-29T12:35:11;6.60;;;1.25;;
36445;SDS011;22472;50.848;-1.216;2023-05-29T12:37:43;6.97;;;1.25;;
36445;SDS011;22472;50.848;-1.216;2023-05-29T12:40:11;5.68;;;1.25;;
36445;SDS011;22472;50.848;-1.216;2023-05-29T12:42:39;7.53;;;1.40;;
36445;SDS011;22472;50.848;-1.216;2023-05-29T12:45:07;5.93;;;1.30;;
36445;SDS011;22472;50.848;-1.216;2023-05-29T12:47:35;4.20;;;1.13;;
36445;SDS011;22472;50.848;-1.216;2023-05-29T12:52:45;5.07;;;1.35;;
36445;SDS011;22472;50.848;-1.216;2023-05-29T12:55:12;8.30;;;1.48;;
36445;SDS011;22472;50.848;-1.216;2023-05-29T12:57:41;5.07;;;1.45;;
36445;SDS011;22472;50.848;-1.216;2023-05-29T13:00:11;7.45;;;1.42;;
36445;SDS011;22472;50.848;-1.216;2023-05-29T13:02:38;7.35;;;1.33;;
36445;SDS011;22472;50.848;-1.216;2023-05-29T13:05:06;4.75;;;1.10;;
36445;SDS011;22472;50.848;-1.216;2023-05-29T13:07:34;5.22;;;1.23;;
36445;SDS011;22472;50.848;-1.216;2023-05-29T13:10:01;5.63;;;1.50;;
36445;SDS011;22472;50.848;-1.216;2023-05-29T13:12:29;5.15;;;1.25;;
36445;SDS011;22472;50.848;-1.216;2023-05-29T13:14:57;6.43;;;1.67;;
36445;SDS011;22472;50.848;-1.216;2023-05-29T13:17:25;7.68;;;1.58;;
36445;SDS011;22472;50.848;-1.216;2023-05-29T13:19:52;5.43;;;1.60;;
36445;SDS011;22472;50.848;-1.216;2023-05-29T13:22:20;7.97;;;1.55;;
36445;SDS011;22472;50.848;-1.216;2023-05-29T13:24:47;5.30;;;1.60;;
36445;SDS011;22472;50.848;-1.216;2023-05-29T13:27:14;5.55;;;1.30;;
36445;SDS011;22472;50.848;-1.216;2023-05-29T13:29:42;5.88;;;1.75;;
36445;SDS011;22472;50.848;-1.216;2023-05-29T13:32:11;7.22;;;1.27;;
36445;SDS011;22472;50.848;-1.216;2023-05-29T13:34:38;6.90;;;1.60;;
36445;SDS011;22472;50.848;-1.216;2023-05-29T13:37:06;8.15;;;1.42;;
36445;SDS011;22472;50.848;-1.216;2023-05-29T13:39:33;4.22;;;1.63;;
36445;SDS011;22472;50.848;-1.216;2023-05-29T13:42:00;6.25;;;1.23;;
36445;SDS011;22472;50.848;-1.216;2023-05-29T13:44:27;6.07;;;1.50;;
36445;SDS011;22472;50.848;-1.216;2023-05-29T13:46:55;6.65;;;1.40;;
36445;SDS011;22472;50.848;-1.216;2023-05-29T13:49:25;7.93;;;1.40;;
36445;SDS011;22472;50.848;-1.216;2023-05-29T13:51:52;6.20;;;1.80;;
36445;SDS011;22472;50.848;-1.216;2023-05-29T13:54:20;4.78;;;1.33;;
36445;SDS011;22472;50.848;-1.216;2023-05-29T13:56:47;7.28;;;1.73;;
36445;SDS011;22472;50.848;-1.216;2023-05-29T13:59:15;7.47;;;2.20;;
36445;SDS011;22472;50.848;-1.216;2023-05-29T14:01:43;9.43;;;3.80;;
36445;SDS011;22472;50.848;-1.216;2023-05-29T14:04:11;8.10;;;2.25;;
36445;SDS011;22472;50.848;-1.216;2023-05-29T14:06:40;5.93;;;1.42;;
36445;SDS011;22472;50.848;-1.216;2023-05-29T14:09:07;6.78;;;1.95;;
36445;SDS011;22472;50.848;-1.216;2023-05-29T14:11:35;8.15;;;3.00;;
36445;SDS011;22472;50.848;-1.216;2023-05-29T14:14:03;6.53;;;2.13;;
36445;SDS011;22472;50.848;-1.216;2023-05-29T14:16:31;5.63;;;1.52;;
36445;SDS011;22472;50.848;-1.216;2023-05-29T14:18:58;6.15;;;1.50;;
36445;SDS011;22472;50.848;-1.216;2023-05-29T14:21:26;9.13;;;2.15;;
36445;SDS011;22472;50.848;-1.216;2023-05-29T14:23:55;5.95;;;2.35;;
36445;SDS011;22472;50.848;-1.216;2023-05-29T14:26:22;8.77;;;3.45;;
36445;SDS011;22472;50.848;-1.216;2023-05-29T14:28:49;6.40;;;1.90;;
36445;SDS011;22472;50.848;-1.216;2023-05-29T14:31:17;6.65;;;2.00;;
36445;SDS011;22472;50.848;-1.216;2023-05-29T14:33:44;8.57;;;3.35;;
36445;SDS011;22472;50.848;-1.216;2023-05-29T14:36:11;5.55;;;1.92;;
36445;SDS011;22472;50.848;-1.216;2023-05-29T14:38:39;8.20;;;2.70;;
36445;SDS011;22472;50.848;-1.216;2023-05-29T14:41:09;8.27;;;2.33;;